Terminal Aerodrome Forecast
Issued by NWS Chicago, IL

Home | Current Version | Previous Version | Graphics & Text | Print | Product List | Glossary On
Versions: 1 2 3 4 5 6 7 8 9 10 11 12 13 14 15 16 17 18 19 20 21 22 23 24 25 26 27 28 29 30 31
000
FTUS43 KLOT 240401 AAB
TAFRFD
TAF AMD
KRFD 240401Z 2404/2424 06007KT 6SM BR BKN010
     FM240800 08006KT 3SM BR BKN008
     FM241600 09009KT P6SM BKN015 BKN040
     FM242100 11009KT P6SM BKN035 BKN050=

USA.gov is the U.S. government's official web portal to all federal, state and local government web resources and services.